createdAt,value
2023-04-19T00:00:16.362Z,9.20
2023-04-19T00:03:12.938Z,9.20
2023-04-19T00:06:09.463Z,9.20
2023-04-19T00:09:02.349Z,9.10
2023-04-19T00:11:52.426Z,9.10
2023-04-19T00:14:44.037Z,9.10
2023-04-19T00:17:35.201Z,9.10
2023-04-19T00:20:25.391Z,9.10
2023-04-19T00:23:21.910Z,9.10
2023-04-19T00:26:14.084Z,9.10
2023-04-19T00:29:05.010Z,9.10
2023-04-19T00:31:55.343Z,9.10
2023-04-19T00:34:46.022Z,9.00
2023-04-19T00:41:05.710Z,9.00
2023-04-19T00:43:56.302Z,8.90
2023-04-19T00:46:46.933Z,8.80
2023-04-19T00:49:36.929Z,8.70
2023-04-19T00:52:29.981Z,8.70
2023-04-19T00:55:21.428Z,8.70
2023-04-19T00:58:17.073Z,8.80
2023-04-19T01:01:14.389Z,8.70
2023-04-19T01:04:26.562Z,8.80
2023-04-19T01:07:17.724Z,8.80
2023-04-19T01:10:10.647Z,8.80
2023-04-19T01:13:06.759Z,8.70
2023-04-19T01:16:07.002Z,8.70
2023-04-19T01:18:56.649Z,8.70
2023-04-19T01:21:47.962Z,8.60
2023-04-19T01:24:41.622Z,8.70
2023-04-19T01:27:31.201Z,8.70
2023-04-19T01:30:26.750Z,8.60
2023-04-19T01:33:21.792Z,8.50
2023-04-19T01:36:16.169Z,8.50
2023-04-19T01:39:10.401Z,8.50
2023-04-19T01:42:05.977Z,8.50
2023-04-19T01:44:58.784Z,8.40
2023-04-19T01:47:49.673Z,8.50
2023-04-19T01:50:39.397Z,8.50
2023-04-19T01:53:29.929Z,8.50
2023-04-19T01:56:20.221Z,8.40
2023-04-19T01:59:21.846Z,8.40
2023-04-19T02:02:12.450Z,8.30
2023-04-19T02:05:04.142Z,8.30
2023-04-19T02:07:57.899Z,8.40
2023-04-19T02:13:33.437Z,8.50
2023-04-19T02:16:24.764Z,8.50
2023-04-19T02:19:14.429Z,8.50
2023-04-19T02:22:04.214Z,8.60
2023-04-19T02:24:54.164Z,8.60
2023-04-19T02:27:43.920Z,8.60
2023-04-19T02:30:33.332Z,8.60
2023-04-19T02:33:25.282Z,8.60
2023-04-19T02:36:14.940Z,8.60
2023-04-19T02:39:06.164Z,8.60
2023-04-19T02:41:55.771Z,8.60
2023-04-19T02:44:45.122Z,8.70
2023-04-19T02:47:34.958Z,8.50
2023-04-19T02:50:25.880Z,8.60
2023-04-19T02:53:15.637Z,8.70
2023-04-19T02:56:05.244Z,8.60
2023-04-19T02:58:57.921Z,8.70
2023-04-19T03:01:47.363Z,8.70
2023-04-19T03:04:37.325Z,8.70
2023-04-19T03:07:28.438Z,8.70
2023-04-19T03:10:18.353Z,8.60
2023-04-19T03:13:07.828Z,8.60
2023-04-19T03:15:57.443Z,8.70
2023-04-19T03:18:49.324Z,8.70
2023-04-19T03:21:39.012Z,8.70
2023-04-19T03:24:35.478Z,8.80
2023-04-19T03:27:26.972Z,8.80
2023-04-19T03:30:16.702Z,8.80
2023-04-19T03:33:07.279Z,8.80
2023-04-19T03:35:56.728Z,8.70
2023-04-19T03:38:46.333Z,8.80
2023-04-19T03:41:37.209Z,8.80
2023-04-19T03:44:27.030Z,8.80
2023-04-19T03:47:16.776Z,8.80
2023-04-19T03:50:07.197Z,8.80
2023-04-19T03:52:56.565Z,8.80
2023-04-19T03:55:46.505Z,8.80
2023-04-19T03:58:37.856Z,8.80
2023-04-19T04:01:28.148Z,8.70
2023-04-19T04:04:18.260Z,8.80
2023-04-19T04:07:08.544Z,8.80
2023-04-19T04:09:57.940Z,8.80
2023-04-19T04:12:47.948Z,8.80
2023-04-19T04:15:39.382Z,8.80
2023-04-19T04:18:29.066Z,8.80
2023-04-19T04:21:18.552Z,8.90
2023-04-19T04:24:09.105Z,8.80
2023-04-19T04:27:01.478Z,8.90
2023-04-19T04:29:51.087Z,8.90
2023-04-19T04:32:42.767Z,8.90
2023-04-19T04:35:32.306Z,8.80
2023-04-19T04:38:25.017Z,8.80
2023-04-19T04:41:14.700Z,8.90
2023-04-19T04:44:12.465Z,8.70
2023-04-19T04:47:02.248Z,8.70
2023-04-19T04:49:53.667Z,8.80
2023-04-19T04:52:43.136Z,8.80
2023-04-19T04:55:38.906Z,8.90
2023-04-19T04:58:28.214Z,8.90
2023-04-19T05:01:19.982Z,8.80
2023-04-19T05:04:09.498Z,8.90
2023-04-19T05:07:00.672Z,8.90
2023-04-19T05:09:50.070Z,8.90
2023-04-19T05:12:39.884Z,8.80
2023-04-19T05:15:29.261Z,8.90
2023-04-19T05:18:18.885Z,9.20
2023-04-19T05:21:10.682Z,9.30
2023-04-19T05:24:01.788Z,9.60
2023-04-19T05:26:51.056Z,9.70
2023-04-19T05:29:40.883Z,9.90
2023-04-19T05:32:30.434Z,10.00
2023-04-19T05:35:20.482Z,10.00
2023-04-19T05:38:10.099Z,9.90
2023-04-19T05:41:01.453Z,9.90
2023-04-19T05:43:51.285Z,9.80
2023-04-19T05:46:41.303Z,9.90
2023-04-19T05:49:30.705Z,9.90
2023-04-19T05:52:20.909Z,9.70
2023-04-19T05:55:10.985Z,9.70
2023-04-19T05:58:02.607Z,9.60
2023-04-19T06:00:53.844Z,9.70
2023-04-19T06:03:43.765Z,9.40
2023-04-19T06:06:33.487Z,9.40
2023-04-19T06:09:23.422Z,9.30
2023-04-19T06:12:12.947Z,9.20
2023-04-19T06:15:04.109Z,9.30
2023-04-19T06:17:53.932Z,9.20
2023-04-19T06:20:43.744Z,9.40
2023-04-19T06:23:33.661Z,9.40
2023-04-19T06:26:23.210Z,9.50
2023-04-19T06:29:13.073Z,9.40
2023-04-19T06:32:04.234Z,9.50
2023-04-19T06:34:53.751Z,9.60
2023-04-19T06:37:43.577Z,9.60
2023-04-19T06:40:33.316Z,9.60
2023-04-19T06:43:23.110Z,9.60
2023-04-19T06:46:14.404Z,9.60
2023-04-19T06:49:05.990Z,9.50
2023-04-19T06:51:55.645Z,9.70
2023-04-19T06:54:48.600Z,9.90
2023-04-19T06:57:39.053Z,10.10
2023-04-19T07:00:28.710Z,10.30
2023-04-19T07:03:19.016Z,10.70
2023-04-19T07:06:10.397Z,10.80
2023-04-19T07:09:00.451Z,10.90
2023-04-19T07:11:51.750Z,11.20
2023-04-19T07:14:41.288Z,11.20
2023-04-19T07:17:31.148Z,11.00
2023-04-19T07:20:20.762Z,10.90
2023-04-19T07:23:12.465Z,10.90
2023-04-19T07:26:01.944Z,10.80
2023-04-19T07:28:52.043Z,10.80
2023-04-19T07:31:42.484Z,10.60
2023-04-19T07:34:32.419Z,10.60
2023-04-19T07:37:22.362Z,10.70
2023-04-19T07:40:15.005Z,10.50
2023-04-19T07:43:04.685Z,10.80
2023-04-19T07:45:54.738Z,10.90
2023-04-19T07:48:44.628Z,11.20
2023-04-19T07:51:33.986Z,11.60
2023-04-19T07:54:23.718Z,11.50
2023-04-19T07:57:14.663Z,11.60
2023-04-19T08:00:05.321Z,11.40
2023-04-19T08:02:55.057Z,11.60
2023-04-19T08:05:44.794Z,12.20
2023-04-19T08:08:34.665Z,12.70
2023-04-19T08:11:25.541Z,13.00
2023-04-19T08:14:30.938Z,13.50
2023-04-19T08:17:28.339Z,13.60
2023-04-19T08:20:22.949Z,13.80
2023-04-19T08:23:22.209Z,14.00
2023-04-19T08:26:15.454Z,14.10
2023-04-19T08:29:04.986Z,14.00
2023-04-19T08:31:56.323Z,14.50
2023-04-19T08:34:46.647Z,14.70
2023-04-19T08:37:36.865Z,14.80
2023-04-19T08:40:26.993Z,14.90
2023-04-19T08:43:18.722Z,15.00
2023-04-19T08:46:09.732Z,14.70
2023-04-19T08:49:02.407Z,14.90
2023-04-19T08:51:52.666Z,14.90
2023-04-19T08:54:42.953Z,14.80
2023-04-19T08:57:33.272Z,14.90
2023-04-19T09:00:24.262Z,14.90
2023-04-19T09:03:14.015Z,14.90
2023-04-19T09:06:05.782Z,14.70
2023-04-19T09:08:58.751Z,14.50
2023-04-19T09:11:48.440Z,14.70
2023-04-19T09:15:00.695Z,15.40
2023-04-19T09:18:08.195Z,15.30
2023-04-19T09:20:59.018Z,15.90
2023-04-19T09:23:52.042Z,16.60
2023-04-19T09:26:55.230Z,16.60
2023-04-19T09:29:54.749Z,16.90
2023-04-19T09:32:49.947Z,17.00
2023-04-19T09:35:43.764Z,17.00
2023-04-19T09:38:48.246Z,16.00
2023-04-19T09:41:57.059Z,16.40
2023-04-19T09:45:27.471Z,16.10
2023-04-19T09:48:09.963Z,16.50
2023-04-19T09:51:04.971Z,16.30
2023-04-19T09:53:57.546Z,16.10
2023-04-19T09:56:49.611Z,15.80
2023-04-19T09:59:39.122Z,16.00
2023-04-19T10:02:33.107Z,16.00
2023-04-19T10:05:24.136Z,16.20
2023-04-19T10:08:15.524Z,16.60
2023-04-19T10:11:05.998Z,17.20
2023-04-19T10:14:00.931Z,17.70
2023-04-19T10:16:51.759Z,17.40
2023-04-19T10:19:44.147Z,17.10
2023-04-19T10:22:34.201Z,16.80
2023-04-19T10:25:31.544Z,16.70
2023-04-19T10:28:21.339Z,16.50
2023-04-19T10:31:14.922Z,16.90
2023-04-19T10:34:04.383Z,16.40
2023-04-19T10:36:54.342Z,16.40
2023-04-19T10:39:47.651Z,16.30
2023-04-19T10:43:19.926Z,16.10
2023-04-19T10:46:15.107Z,15.90
2023-04-19T10:49:06.373Z,15.70
2023-04-19T10:51:57.726Z,16.40
2023-04-19T10:54:57.051Z,16.60
2023-04-19T10:58:06.842Z,16.80
2023-04-19T11:01:25.763Z,17.30
2023-04-19T11:04:18.482Z,17.20
2023-04-19T11:07:09.364Z,16.90
2023-04-19T11:09:58.950Z,16.90
2023-04-19T11:12:48.647Z,16.90
2023-04-19T11:15:45.262Z,16.80
2023-04-19T11:18:34.731Z,17.10
2023-04-19T11:21:26.101Z,17.70
2023-04-19T11:24:19.155Z,17.60
2023-04-19T11:27:11.264Z,17.20
2023-04-19T11:30:06.140Z,17.50
2023-04-19T11:32:57.373Z,17.70
2023-04-19T11:35:46.904Z,17.30
2023-04-19T11:38:37.962Z,17.70
2023-04-19T11:41:27.745Z,17.30
2023-04-19T11:44:20.707Z,17.50
2023-04-19T11:47:10.728Z,17.40
2023-04-19T11:50:20.423Z,16.90
2023-04-19T11:53:14.804Z,17.20
2023-04-19T11:56:09.756Z,17.20
2023-04-19T11:59:00.321Z,17.30
2023-04-19T12:01:50.110Z,17.70
2023-04-19T12:04:40.207Z,18.30
2023-04-19T12:07:30.293Z,18.90
2023-04-19T12:10:19.814Z,18.60
2023-04-19T12:13:20.307Z,18.70
2023-04-19T12:16:10.384Z,18.80
2023-04-19T12:18:59.954Z,18.70
2023-04-19T12:21:49.709Z,18.40
2023-04-19T12:24:40.110Z,18.50
2023-04-19T12:27:30.271Z,18.30
2023-04-19T12:30:21.276Z,18.40
2023-04-19T12:33:11.912Z,18.20
2023-04-19T12:36:01.577Z,18.00
2023-04-19T12:38:51.239Z,18.30
2023-04-19T12:41:40.782Z,18.50
2023-04-19T12:44:30.469Z,18.70
2023-04-19T12:47:21.564Z,19.10
2023-04-19T12:50:11.871Z,18.90
2023-04-19T12:53:02.522Z,18.80
2023-04-19T12:55:52.200Z,18.30
2023-04-19T12:58:41.738Z,18.20
2023-04-19T13:01:32.076Z,18.30
2023-04-19T13:04:24.007Z,18.30
2023-04-19T13:07:13.905Z,18.60
2023-04-19T13:10:03.928Z,18.90
2023-04-19T13:12:53.550Z,19.10
2023-04-19T13:15:43.478Z,19.80
2023-04-19T13:18:32.840Z,20.10
2023-04-19T13:21:25.105Z,20.10
2023-04-19T13:24:14.944Z,19.90
2023-04-19T13:27:07.343Z,19.40
2023-04-19T13:29:58.433Z,19.30
2023-04-19T13:32:48.335Z,19.20
2023-04-19T13:35:37.816Z,19.00
2023-04-19T13:38:28.992Z,18.70
2023-04-19T13:41:18.978Z,18.70
2023-04-19T13:44:08.659Z,18.80
2023-04-19T13:46:58.808Z,18.90
2023-04-19T13:49:52.785Z,18.90
2023-04-19T13:52:42.317Z,18.70
2023-04-19T13:55:33.128Z,18.40
2023-04-19T13:58:23.108Z,18.30
2023-04-19T14:01:12.700Z,18.30
2023-04-19T14:04:02.538Z,18.20
2023-04-19T14:06:52.746Z,18.40
2023-04-19T14:09:42.788Z,18.50
2023-04-19T14:12:34.067Z,18.60
2023-04-19T14:15:24.225Z,18.70
2023-04-19T14:18:13.814Z,18.70
2023-04-19T14:21:03.451Z,18.60
2023-04-19T14:23:53.152Z,18.60
2023-04-19T14:26:42.689Z,18.70
2023-04-19T14:29:33.905Z,18.70
2023-04-19T14:32:26.443Z,18.70
2023-04-19T14:35:16.610Z,18.60
2023-04-19T14:38:06.656Z,18.50
2023-04-19T14:40:56.765Z,17.80
2023-04-19T14:43:46.586Z,17.70
2023-04-19T14:46:37.557Z,17.50
2023-04-19T14:49:27.741Z,17.30
2023-04-19T14:52:17.345Z,17.00
2023-04-19T14:55:07.742Z,16.80
2023-04-19T14:57:57.238Z,16.50
2023-04-19T15:00:46.941Z,16.40
2023-04-19T15:03:38.278Z,16.20
2023-04-19T15:06:28.003Z,16.00
2023-04-19T15:09:17.977Z,15.70
2023-04-19T15:12:08.330Z,15.80
2023-04-19T15:14:58.205Z,15.70
2023-04-19T15:17:48.056Z,15.80
2023-04-19T15:20:38.985Z,15.70
2023-04-19T15:23:28.785Z,15.70
2023-04-19T15:26:18.709Z,15.50
2023-04-19T15:29:08.595Z,15.70
2023-04-19T15:31:58.166Z,15.70
2023-04-19T15:34:47.939Z,15.70
2023-04-19T15:37:41.547Z,15.70
2023-04-19T15:40:31.391Z,15.50
2023-04-19T15:43:20.928Z,15.50
2023-04-19T15:46:15.082Z,15.50
2023-04-19T15:49:05.343Z,15.30
2023-04-19T15:51:54.982Z,15.10
2023-04-19T15:54:46.110Z,14.90
2023-04-19T15:57:35.694Z,14.80
2023-04-19T16:00:28.304Z,14.50
2023-04-19T16:03:18.264Z,14.30
2023-04-19T16:06:07.974Z,14.00
2023-04-19T16:08:58.227Z,13.80
2023-04-19T16:11:49.200Z,13.70
2023-04-19T16:14:39.228Z,13.60
2023-04-19T16:17:29.166Z,13.60
2023-04-19T16:20:20.858Z,13.70
2023-04-19T16:23:10.543Z,13.80
2023-04-19T16:26:00.086Z,13.90
2023-04-19T16:28:51.427Z,14.10
2023-04-19T16:31:41.011Z,14.20
2023-04-19T16:34:30.382Z,14.10
2023-04-19T16:37:20.465Z,14.20
2023-04-19T16:40:12.526Z,14.30
2023-04-19T16:43:01.970Z,14.10
2023-04-19T16:45:53.382Z,14.10
2023-04-19T16:48:42.830Z,13.90
2023-04-19T16:51:32.698Z,13.80
2023-04-19T16:54:22.150Z,13.80
2023-04-19T16:57:12.262Z,13.80
2023-04-19T17:00:02.086Z,13.80
2023-04-19T17:02:53.680Z,13.80
2023-04-19T17:05:43.534Z,13.70
2023-04-19T17:08:33.115Z,13.70
2023-04-19T17:11:23.103Z,13.50
2023-04-19T17:14:12.624Z,13.50
2023-04-19T17:17:02.804Z,13.40
2023-04-19T17:19:56.831Z,13.30
2023-04-19T17:22:46.450Z,13.20
2023-04-19T17:25:36.667Z,13.10
2023-04-19T17:28:35.801Z,12.90
2023-04-19T17:31:26.020Z,12.80
2023-04-19T17:34:29.168Z,12.70
2023-04-19T17:37:21.062Z,12.70
2023-04-19T17:40:13.105Z,12.60
2023-04-19T17:43:04.112Z,12.60
2023-04-19T17:45:54.560Z,12.50
2023-04-19T17:48:45.045Z,12.40
2023-04-19T17:51:35.457Z,12.30
2023-04-19T17:54:28.160Z,12.20
2023-04-19T17:57:20.104Z,12.10
2023-04-19T18:00:12.162Z,12.00
2023-04-19T18:03:03.209Z,11.90
2023-04-19T18:05:57.283Z,11.80
2023-04-19T18:08:47.421Z,11.70
2023-04-19T18:11:39.731Z,11.70
2023-04-19T18:14:31.302Z,11.70
2023-04-19T18:17:22.534Z,11.60
2023-04-19T18:20:15.506Z,11.70
2023-04-19T18:23:07.305Z,11.70
2023-04-19T18:25:58.782Z,11.70
2023-04-19T18:28:51.678Z,11.70
2023-04-19T18:31:42.515Z,11.70
2023-04-19T18:34:32.898Z,11.70
2023-04-19T18:37:23.608Z,11.70
2023-04-19T18:40:15.958Z,11.70
2023-04-19T18:43:06.499Z,11.70
2023-04-19T18:46:01.185Z,11.70
2023-04-19T18:48:51.317Z,11.70
2023-04-19T18:51:42.439Z,11.70
2023-04-19T18:54:33.276Z,11.70
2023-04-19T18:57:28.260Z,11.70
2023-04-19T19:00:20.936Z,11.70
2023-04-19T19:03:48.327Z,11.70
2023-04-19T19:06:30.260Z,11.70
2023-04-19T19:09:23.348Z,11.70
2023-04-19T19:12:15.802Z,11.70
2023-04-19T19:15:07.987Z,11.70
2023-04-19T19:17:59.587Z,11.60
2023-04-19T19:20:53.381Z,11.60
2023-04-19T19:23:45.025Z,11.60
2023-04-19T19:26:39.632Z,11.60
2023-04-19T19:29:30.097Z,11.60
2023-04-19T19:32:22.151Z,11.60
2023-04-19T19:35:14.466Z,11.60
2023-04-19T19:38:07.547Z,11.60
2023-04-19T19:41:41.736Z,11.60
2023-04-19T19:44:23.346Z,11.70
2023-04-19T19:47:16.892Z,11.70
2023-04-19T19:53:08.174Z,11.60
2023-04-19T19:55:58.473Z,11.60
2023-04-19T19:58:51.722Z,11.60
2023-04-19T20:01:42.972Z,11.50
2023-04-19T20:04:36.115Z,11.50
2023-04-19T20:07:42.321Z,11.50
2023-04-19T20:10:46.234Z,11.30
2023-04-19T20:13:37.687Z,11.30
2023-04-19T20:16:30.135Z,11.30
2023-04-19T20:19:20.478Z,11.30
2023-04-19T20:22:15.598Z,11.30
2023-04-19T20:25:08.139Z,11.30
2023-04-19T20:28:00.869Z,11.30
2023-04-19T20:30:53.180Z,11.20
2023-04-19T20:33:43.649Z,11.20
2023-04-19T20:36:34.072Z,11.20
2023-04-19T20:39:27.021Z,11.20
2023-04-19T20:42:17.509Z,11.20
2023-04-19T20:45:12.258Z,11.30
2023-04-19T20:48:02.851Z,11.20
2023-04-19T20:50:53.712Z,11.30
2023-04-19T20:53:43.799Z,11.20
2023-04-19T20:56:34.407Z,11.30
2023-04-19T20:59:24.631Z,11.30
2023-04-19T21:02:20.454Z,11.30
2023-04-19T21:05:10.897Z,11.30
2023-04-19T21:08:00.740Z,11.30
2023-04-19T21:10:50.304Z,11.40
2023-04-19T21:13:39.757Z,11.30
2023-04-19T21:16:29.349Z,11.40
2023-04-19T21:19:20.381Z,11.40
2023-04-19T21:22:10.460Z,11.40
2023-04-19T21:24:59.783Z,11.40
2023-04-19T21:27:49.582Z,11.30
2023-04-19T21:30:41.150Z,11.30
2023-04-19T21:33:30.683Z,11.30
2023-04-19T21:36:21.786Z,11.20
2023-04-19T21:39:11.664Z,11.20
2023-04-19T21:42:02.351Z,11.20
2023-04-19T21:44:52.257Z,11.20
2023-04-19T21:47:41.786Z,11.30
2023-04-19T21:50:31.350Z,11.30
2023-04-19T21:53:22.865Z,11.30
2023-04-19T21:56:13.203Z,11.30
2023-04-19T21:59:03.214Z,11.10
2023-04-19T22:01:54.172Z,11.10
2023-04-19T22:04:45.051Z,11.00
2023-04-19T22:07:37.684Z,10.90
2023-04-19T22:10:29.989Z,10.70
2023-04-19T22:13:22.183Z,10.50
2023-04-19T22:16:11.646Z,10.30
2023-04-19T22:19:02.274Z,10.10
2023-04-19T22:21:53.677Z,10.00
2023-04-19T22:24:56.087Z,9.90
2023-04-19T22:27:49.173Z,9.80
2023-04-19T22:30:38.560Z,9.70
2023-04-19T22:33:28.374Z,9.60
2023-04-19T22:36:17.902Z,9.50
2023-04-19T22:39:08.340Z,9.40
2023-04-19T22:41:58.221Z,9.30
2023-04-19T22:44:49.601Z,9.30
2023-04-19T22:47:39.364Z,9.30
2023-04-19T22:50:29.339Z,9.20
2023-04-19T22:53:18.867Z,9.20
2023-04-19T22:56:08.458Z,9.10
2023-04-19T22:58:59.596Z,9.00
2023-04-19T23:01:50.626Z,9.00
2023-04-19T23:04:40.645Z,9.00
2023-04-19T23:07:30.040Z,8.90
2023-04-19T23:10:20.089Z,8.90
2023-04-19T23:13:10.830Z,8.80
2023-04-19T23:16:00.720Z,8.80
2023-04-19T23:18:51.942Z,8.70
2023-04-19T23:21:41.185Z,8.70
2023-04-19T23:24:31.415Z,8.80
2023-04-19T23:27:21.415Z,8.70
2023-04-19T23:30:11.561Z,8.70
2023-04-19T23:33:01.704Z,8.70
2023-04-19T23:35:53.064Z,8.70
2023-04-19T23:38:42.604Z,8.70
2023-04-19T23:41:32.064Z,8.70
2023-04-19T23:44:21.829Z,8.70
2023-04-19T23:47:12.558Z,8.70
2023-04-19T23:50:02.090Z,8.70
2023-04-19T23:52:53.547Z,8.60
2023-04-19T23:55:43.118Z,8.70
2023-04-19T23:58:33.026Z,8.70
